Terminal Aerodrome Forecast
Issued by NWS Wakefield, VA

Home | Current Version | Previous Version | Text Only | Print | Product List | Glossary On
Versions: 1 2 3 4 5 6 7 8 9 10 11 12 13 14 15
477
FTUS41 KAKQ 121120
TAFORF
TAF
KORF 121120Z 1212/1312 01007KT P6SM BKN100
     FM121900 06007KT 2SM -SN BR OVC025
     FM122100 09007KT 1/2SM SN FZFG OVC015
     FM130000 22004KT P6SM OVC025
     FM130900 30012G22KT P6SM SCT040=

USA.gov is the U.S. government's official web portal to all federal, state and local government web resources and services.